Time;durP1;ratioP1;P1;durP2;ratioP2;P2;SDS_P1;SDS_P2;PMS_P1;PMS_P2;Temp;Humidity;BMP_temperature;BMP_pressure;BME280_temperature;BME280_humidity;BME280_pressure;Samples;Min_cycle;Max_cycle;Signal;HPM_P1;HPM_P2
2023/09/11 00:02:14;;;;;;;34.10;16.98;;;;;;;;;;5032261;28;20107;-61
2023/09/11 00:04:40;;;;;;;29.20;16.20;;;;;;;;;;5031890;28;20483;-61
2023/09/11 00:07:06;;;;;;;31.25;16.13;;;;;;;;;;5032367;28;20126;-61
2023/09/11 00:09:32;;;;;;;27.17;15.75;;;;;;;;;;5032205;28;20038;-61
2023/09/11 00:11:58;;;;;;;34.08;16.85;;;;;;;;;;5031495;28;20041;-61
2023/09/11 00:14:24;;;;;;;26.23;15.82;;;;;;;;;;5031896;28;20048;-61
2023/09/11 00:16:50;;;;;;;28.55;15.48;;;;;;;;;;5042372;28;20037;-61
2023/09/11 00:19:16;;;;;;;29.80;16.65;;;;;;;;;;5051413;28;20472;-61
2023/09/11 00:21:43;;;;;;;22.65;17.02;;;;;;;;;;5051638;28;20404;-61
2023/09/11 00:24:09;;;;;;;31.73;16.00;;;;;;;;;;5051814;28;20044;-61
2023/09/11 00:26:34;;;;;;;25.80;16.13;;;;;;;;;;5036260;28;20063;-61
2023/09/11 00:29:00;;;;;;;28.88;16.13;;;;;;;;;;5031870;28;20505;-61
2023/09/11 00:31:26;;;;;;;24.05;16.27;;;;;;;;;;5031763;28;20336;-61
2023/09/11 00:33:52;;;;;;;22.25;15.98;;;;;;;;;;5030936;28;20041;-61
2023/09/11 00:36:18;;;;;;;33.03;16.23;;;;;;;;;;5014105;28;20048;-61
2023/09/11 00:38:47;;;;;;;29.30;16.48;;;;;;;;;;5031591;28;20042;-61
2023/09/11 00:41:13;;;;;;;30.35;17.00;;;;;;;;;;5031095;28;20072;-61
2023/09/11 00:43:39;;;;;;;24.50;16.50;;;;;;;;;;5031776;28;20034;-61
2023/09/11 00:46:05;;;;;;;33.97;17.00;;;;;;;;;;5031450;28;20041;-61
2023/09/11 00:48:32;;;;;;;35.03;16.80;;;;;;;;;;5031052;28;20041;-61
2023/09/11 00:50:58;;;;;;;28.75;15.55;;;;;;;;;;5030909;28;20041;-61
2023/09/11 00:53:24;;;;;;;25.77;16.17;;;;;;;;;;5031115;28;20045;-61
2023/09/11 00:55:50;;;;;;;27.38;17.13;;;;;;;;;;5030943;28;20044;-61
2023/09/11 00:58:17;;;;;;;24.02;15.07;;;;;;;;;;5031202;28;20373;-61
2023/09/11 01:00:46;;;;;;;36.22;16.95;;;;;;;;;;5030993;28;20045;-61
2023/09/11 01:03:15;;;;;;;34.80;17.40;;;;;;;;;;5030765;28;20435;-61
2023/09/11 01:05:43;;;;;;;29.05;17.08;;;;;;;;;;5031311;28;20041;-61
2023/09/11 01:08:09;;;;;;;31.48;16.55;;;;;;;;;;5031070;28;20033;-61
2023/09/11 01:10:35;;;;;;;32.15;16.08;;;;;;;;;;5013010;28;20049;-61
2023/09/11 01:13:02;;;;;;;26.30;15.95;;;;;;;;;;5031191;28;20407;-61
2023/09/11 01:15:31;;;;;;;34.13;16.63;;;;;;;;;;5030659;28;20037;-61
2023/09/11 01:18:17;;;;;;;31.75;19.00;;;;;;;;;;5049741;28;20048;-61
2023/09/11 01:20:49;;;;;;;28.77;16.48;;;;;;;;;;5050417;28;20320;-61
2023/09/11 01:23:15;;;;;;;;;;;;;;;;;;5050894;28;20085;-61
2023/09/11 01:25:41;;;;;;;31.30;17.90;;;;;;;;;;5042267;28;19960;-61
2023/09/11 01:28:10;;;;;;;33.83;17.77;;;;;;;;;;5030682;28;20152;-61
2023/09/11 01:30:39;;;;;;;28.48;17.55;;;;;;;;;;5012665;28;20084;-61
2023/09/11 01:33:05;;;;;;;30.23;17.45;;;;;;;;;;5030269;28;20473;-61
2023/09/11 01:35:31;;;;;;;30.02;17.73;;;;;;;;;;5030545;28;20045;-61
2023/09/11 01:37:57;;;;;;;30.83;18.13;;;;;;;;;;5030592;28;20042;-61
2023/09/11 01:40:25;;;;;;;27.50;17.45;;;;;;;;;;5030072;28;20523;-61
2023/09/11 01:42:54;;;;;;;29.80;17.70;;;;;;;;;;5030577;28;20045;-61
2023/09/11 01:45:21;;;;;;;27.15;17.77;;;;;;;;;;5029866;28;20091;-61
2023/09/11 01:47:51;;;;;;;28.60;16.75;;;;;;;;;;5030430;28;20045;-61
2023/09/11 01:50:18;;;;;;;28.73;17.25;;;;;;;;;;5030184;28;20056;-61
2023/09/11 01:52:46;;;;;;;28.75;17.48;;;;;;;;;;5030777;28;20045;-61
2023/09/11 01:55:12;;;;;;;37.75;18.27;;;;;;;;;;5029965;28;20045;-61
2023/09/11 01:57:38;;;;;;;36.60;18.35;;;;;;;;;;5030100;28;20399;-61
2023/09/11 02:00:05;;;;;;;27.15;17.58;;;;;;;;;;5030231;28;20047;-61
2023/09/11 02:02:31;;;;;;;31.00;17.08;;;;;;;;;;5029837;28;20054;-61
2023/09/11 02:04:57;;;;;;;32.95;18.88;;;;;;;;;;5030227;28;20051;-61
2023/09/11 02:07:23;;;;;;;27.08;18.48;;;;;;;;;;5030378;28;20037;-61
2023/09/11 02:09:49;;;;;;;38.83;19.33;;;;;;;;;;5029855;28;20484;-61
2023/09/11 02:12:15;;;;;;;28.90;18.63;;;;;;;;;;5030276;28;20502;-61
2023/09/11 02:14:41;;;;;;;31.95;18.10;;;;;;;;;;5030105;28;20120;-61
2023/09/11 02:17:07;;;;;;;39.35;18.85;;;;;;;;;;5042146;28;20052;-61
2023/09/11 02:19:33;;;;;;;32.63;18.40;;;;;;;;;;5049943;28;20052;-61
2023/09/11 02:22:00;;;;;;;24.58;17.70;;;;;;;;;;5049934;28;20038;-61
2023/09/11 02:24:26;;;;;;;32.35;17.77;;;;;;;;;;5049537;28;20041;-61
2023/09/11 02:26:52;;;;;;;35.60;19.02;;;;;;;;;;5032325;28;20037;-61
2023/09/11 02:29:18;;;;;;;35.13;17.67;;;;;;;;;;5030115;28;20403;-61
2023/09/11 02:31:44;;;;;;;33.80;19.10;;;;;;;;;;5029980;28;20033;-61
2023/09/11 02:34:10;;;;;;;25.73;17.30;;;;;;;;;;5029136;28;20041;-61
2023/09/11 02:36:36;;;;;;;32.30;17.52;;;;;;;;;;5029769;28;20041;-61
2023/09/11 02:39:02;;;;;;;29.75;18.90;;;;;;;;;;5029724;28;20084;-61
2023/09/11 02:41:28;;;;;;;29.15;18.30;;;;;;;;;;5029414;28;20081;-61
2023/09/11 02:43:54;;;;;;;28.60;17.77;;;;;;;;;;5029939;28;20519;-61
2023/09/11 02:46:20;;;;;;;28.83;17.83;;;;;;;;;;5029964;28;20438;-61
2023/09/11 02:48:46;;;;;;;34.70;17.98;;;;;;;;;;5029509;28;20438;-61
2023/09/11 02:51:13;;;;;;;28.58;17.73;;;;;;;;;;5029411;28;20076;-61
2023/09/11 02:53:39;;;;;;;34.08;19.52;;;;;;;;;;5029734;28;20037;-61
2023/09/11 02:56:05;;;;;;;24.73;17.95;;;;;;;;;;5031798;28;20045;-61
2023/09/11 02:58:31;;;;;;;29.40;18.60;;;;;;;;;;5033190;28;20080;-61
2023/09/11 03:01:06;;;;;;;33.63;17.75;;;;;;;;;;5033447;28;20033;-61
2023/09/11 03:03:32;;;;;;;30.05;18.13;;;;;;;;;;5033017;28;20037;-61
2023/09/11 03:05:59;;;;;;;32.58;18.33;;;;;;;;;;5033413;28;20144;-61
2023/09/11 03:08:25;;;;;;;29.92;17.67;;;;;;;;;;5033453;28;20037;-61
2023/09/11 03:10:51;;;;;;;32.33;18.33;;;;;;;;;;5032938;28;20037;-61
2023/09/11 03:13:17;;;;;;;31.65;19.15;;;;;;;;;;5033258;28;20172;-61
2023/09/11 03:15:43;;;;;;;29.45;18.00;;;;;;;;;;5034085;28;20041;-61
2023/09/11 03:18:09;;;;;;;30.38;17.60;;;;;;;;;;5052716;28;20041;-61
2023/09/11 03:20:35;;;;;;;34.10;18.42;;;;;;;;;;5053045;28;20410;-61
2023/09/11 03:23:01;;;;;;;27.63;18.35;;;;;;;;;;5035210;28;20075;-61
2023/09/11 03:25:27;;;;;;;31.38;18.42;;;;;;;;;;5046435;28;20037;-61
2023/09/11 03:27:53;;;;;;;31.60;18.15;;;;;;;;;;5033139;28;20060;-61
2023/09/11 03:30:19;;;;;;;36.40;18.08;;;;;;;;;;5033006;28;20044;-61
2023/09/11 03:32:45;;;;;;;35.15;19.02;;;;;;;;;;5032701;28;20045;-61
2023/09/11 03:35:11;;;;;;;35.78;18.67;;;;;;;;;;5032885;28;20045;-61
2023/09/11 03:37:37;;;;;;;28.92;18.15;;;;;;;;;;5033025;28;20045;-61
2023/09/11 03:40:07;;;;;;;33.75;18.15;;;;;;;;;;5032357;28;20581;-61
2023/09/11 03:42:36;;;;;;;34.35;18.10;;;;;;;;;;5032686;28;20046;-61
2023/09/11 03:45:02;;;;;;;32.33;18.55;;;;;;;;;;5032626;28;20107;-61
2023/09/11 03:47:28;;;;;;;32.97;18.67;;;;;;;;;;5032253;28;20438;-61
2023/09/11 03:49:54;;;;;;;30.10;19.70;;;;;;;;;;5032363;28;20050;-61
2023/09/11 03:52:20;;;;;;;33.45;17.83;;;;;;;;;;5032564;28;20120;-61
2023/09/11 03:54:46;;;;;;;34.53;18.85;;;;;;;;;;5032429;28;20111;-61
2023/09/11 03:57:12;;;;;;;24.83;18.00;;;;;;;;;;5014664;28;20053;-61
2023/09/11 03:59:38;;;;;;;30.38;17.73;;;;;;;;;;5032352;28;20041;-61
2023/09/11 04:02:04;;;;;;;29.50;18.58;;;;;;;;;;5031898;28;20049;-61
2023/09/11 04:04:30;;;;;;;27.90;18.95;;;;;;;;;;5032253;28;20541;-61
2023/09/11 04:06:56;;;;;;;32.75;18.05;;;;;;;;;;5031786;28;20459;-61
2023/09/11 04:09:22;;;;;;;24.33;18.05;;;;;;;;;;5031902;28;20128;-61
2023/09/11 04:11:48;;;;;;;33.78;19.52;;;;;;;;;;5032201;28;20124;-61
2023/09/11 04:14:14;;;;;;;35.95;19.00;;;;;;;;;;5032057;28;20103;-61
2023/09/11 04:16:40;;;;;;;30.65;18.13;;;;;;;;;;5040527;28;20387;-61
2023/09/11 04:19:07;;;;;;;32.58;19.80;;;;;;;;;;5051939;28;20037;-61
2023/09/11 04:21:33;;;;;;;35.17;19.48;;;;;;;;;;5051838;28;20059;-61
2023/09/11 04:23:59;;;;;;;31.25;19.27;;;;;;;;;;5051372;28;20132;-61
2023/09/11 04:26:25;;;;;;;29.67;18.45;;;;;;;;;;5037988;28;20051;-61
2023/09/11 04:28:51;;;;;;;33.80;19.33;;;;;;;;;;5031985;28;20034;-61
2023/09/11 04:31:17;;;;;;;30.23;19.45;;;;;;;;;;5031413;28;20167;-61
2023/09/11 04:33:43;;;;;;;35.03;18.95;;;;;;;;;;5031640;28;20045;-61
2023/09/11 04:36:09;;;;;;;32.38;19.88;;;;;;;;;;5031429;28;20048;-61
2023/09/11 04:38:35;;;;;;;30.73;19.23;;;;;;;;;;5031207;28;20119;-61
2023/09/11 04:41:01;;;;;;;34.67;19.27;;;;;;;;;;5013643;28;20037;-61
2023/09/11 04:43:27;;;;;;;37.65;20.00;;;;;;;;;;5032365;28;20076;-61
2023/09/11 04:45:53;;;;;;;36.30;20.88;;;;;;;;;;5032127;28;20049;-61
2023/09/11 04:48:19;;;;;;;36.03;18.63;;;;;;;;;;5032038;28;20048;-61
2023/09/11 04:50:45;;;;;;;38.80;19.33;;;;;;;;;;4998091;28;20053;-61
2023/09/11 04:53:12;;;;;;;33.28;18.77;;;;;;;;;;5032083;28;20120;-61
2023/09/11 04:55:38;;;;;;;29.85;19.05;;;;;;;;;;5032032;28;20049;-61
2023/09/11 04:58:04;;;;;;;41.10;19.45;;;;;;;;;;5032199;28;20045;-61
2023/09/11 05:00:30;;;;;;;44.58;20.00;;;;;;;;;;5031705;28;20078;-61
2023/09/11 05:02:56;;;;;;;33.75;19.48;;;;;;;;;;5032310;28;20706;-61
2023/09/11 05:05:22;;;;;;;37.33;20.08;;;;;;;;;;5031721;28;20073;-61
2023/09/11 05:07:48;;;;;;;31.63;18.42;;;;;;;;;;5031906;28;20080;-61
2023/09/11 05:10:14;;;;;;;25.98;17.15;;;;;;;;;;5032390;28;20042;-61
2023/09/11 05:12:40;;;;;;;30.30;18.23;;;;;;;;;;5032137;28;20073;-61
2023/09/11 05:15:07;;;;;;;30.55;19.05;;;;;;;;;;5031906;28;20464;-61
2023/09/11 05:17:33;;;;;;;37.75;19.27;;;;;;;;;;5048479;28;20111;-61
2023/09/11 05:19:59;;;;;;;26.73;17.95;;;;;;;;;;5051171;28;20089;-61
2023/09/11 05:22:25;;;;;;;31.42;18.23;;;;;;;;;;5051719;28;20479;-61
2023/09/11 05:24:53;;;;;;;38.45;18.35;;;;;;;;;;5051201;28;20072;-61
2023/09/11 05:27:21;;;;;;;28.52;18.13;;;;;;;;;;5032038;28;20037;-61
2023/09/11 05:29:47;;;;;;;31.55;18.08;;;;;;;;;;5031589;28;20372;-61
2023/09/11 05:32:13;;;;;;;36.20;18.70;;;;;;;;;;5032115;28;20124;-61
2023/09/11 05:34:39;;;;;;;31.20;17.95;;;;;;;;;;5032027;28;20476;-61
2023/09/11 05:37:05;;;;;;;25.70;16.58;;;;;;;;;;5031651;28;20120;-61
2023/09/11 05:39:32;;;;;;;30.65;17.63;;;;;;;;;;5031940;28;20053;-61
2023/09/11 05:41:58;;;;;;;30.63;17.27;;;;;;;;;;5031385;28;20100;-61
2023/09/11 05:44:24;;;;;;;36.17;18.00;;;;;;;;;;5030916;28;20458;-61
2023/09/11 05:46:50;;;;;;;30.35;17.77;;;;;;;;;;5031696;28;20124;-61
2023/09/11 05:49:16;;;;;;;32.10;17.80;;;;;;;;;;5031275;28;20068;-61
2023/09/11 05:51:43;;;;;;;30.35;17.20;;;;;;;;;;5031559;28;20050;-61
2023/09/11 05:54:11;;;;;;;32.03;17.50;;;;;;;;;;5031510;28;20048;-61
2023/09/11 05:56:37;;;;;;;33.10;17.05;;;;;;;;;;5031753;28;20041;-61
2023/09/11 05:59:03;;;;;;;32.38;18.15;;;;;;;;;;5031621;28;20041;-61
2023/09/11 06:01:29;;;;;;;34.35;18.65;;;;;;;;;;5031120;28;20056;-61
2023/09/11 06:03:55;;;;;;;30.83;17.00;;;;;;;;;;5031485;28;20103;-61
2023/09/11 06:06:21;;;;;;;29.20;17.60;;;;;;;;;;5031619;28;20116;-61
2023/09/11 06:08:47;;;;;;;31.15;17.20;;;;;;;;;;5031228;28;20506;-61
2023/09/11 06:11:13;;;;;;;30.13;17.42;;;;;;;;;;5031672;28;20065;-61
2023/09/11 06:13:41;;;;;;;31.35;17.58;;;;;;;;;;5031492;28;20079;-61
2023/09/11 06:16:07;;;;;;;33.85;18.23;;;;;;;;;;5035382;28;20071;-61
2023/09/11 06:18:33;;;;;;;30.00;16.75;;;;;;;;;;5051409;28;20037;-61
2023/09/11 06:21:00;;;;;;;29.08;18.17;;;;;;;;;;5051340;28;20728;-61
2023/09/11 06:23:26;;;;;;;30.83;18.08;;;;;;;;;;5050673;28;20530;-61
2023/09/11 06:25:52;;;;;;;32.95;16.83;;;;;;;;;;5041174;28;20435;-61
2023/09/11 06:28:18;;;;;;;39.00;17.83;;;;;;;;;;5037239;28;20474;-64
2023/09/11 06:30:44;;;;;;;32.05;17.88;;;;;;;;;;5034721;28;20072;-64
2023/09/11 06:33:10;;;;;;;32.83;17.15;;;;;;;;;;5036031;28;20045;-65
2023/09/11 06:35:36;;;;;;;34.33;17.85;;;;;;;;;;5054374;28;20056;-63
2023/09/11 06:38:02;;;;;;;32.20;17.75;;;;;;;;;;5053621;28;20048;-64
2023/09/11 06:40:28;;;;;;;33.50;18.15;;;;;;;;;;5053979;28;20476;-64
2023/09/11 06:42:54;;;;;;;31.95;18.95;;;;;;;;;;5052969;28;20041;-62
2023/09/11 06:45:20;;;;;;;36.85;19.50;;;;;;;;;;5061051;28;20040;-62
2023/09/11 06:47:46;;;;;;;40.65;19.48;;;;;;;;;;5054864;28;20033;-63
2023/09/11 06:50:14;;;;;;;33.42;19.10;;;;;;;;;;5049028;28;20056;-63
2023/09/11 06:52:40;;;;;;;27.08;18.77;;;;;;;;;;5054538;28;20049;-64
2023/09/11 06:55:10;;;;;;;36.45;20.13;;;;;;;;;;5071999;28;20053;-64
2023/09/11 06:57:38;;;;;;;32.85;19.25;;;;;;;;;;5055193;28;20049;-63
2023/09/11 07:00:10;;;;;;;34.70;19.77;;;;;;;;;;5053578;28;20041;-64
2023/09/11 07:02:37;;;;;;;35.05;19.30;;;;;;;;;;5048031;28;20079;-64
2023/09/11 07:05:04;;;;;;;34.78;19.27;;;;;;;;;;5052299;28;20044;-64
2023/09/11 07:07:31;;;;;;;31.98;19.40;;;;;;;;;;5052915;28;20098;-65
2023/09/11 07:09:57;;;;;;;32.45;19.45;;;;;;;;;;5053237;28;20037;-65
2023/09/11 07:12:23;;;;;;;34.90;19.48;;;;;;;;;;5047980;28;20136;-65
2023/09/11 07:14:49;;;;;;;30.85;19.20;;;;;;;;;;5071277;28;20146;-65
2023/09/11 07:17:15;;;;;;;33.88;20.55;;;;;;;;;;5051076;28;20055;-68
2023/09/11 07:19:41;;;;;;;29.15;19.15;;;;;;;;;;5053438;28;20041;-66
2023/09/11 07:22:07;;;;;;;33.97;19.40;;;;;;;;;;5054423;28;20037;-65
2023/09/11 07:24:33;;;;;;;30.00;18.73;;;;;;;;;;5030014;28;20094;-65
2023/09/11 07:26:59;;;;;;;33.78;19.30;;;;;;;;;;5035042;28;20033;-65
2023/09/11 07:29:26;;;;;;;38.55;19.63;;;;;;;;;;5052908;28;20122;-65
2023/09/11 07:31:53;;;;;;;36.38;20.00;;;;;;;;;;5067574;28;20049;-66
2023/09/11 07:34:19;;;;;;;26.80;19.50;;;;;;;;;;5017867;28;20128;-66
2023/09/11 07:36:45;;;;;;;26.95;18.27;;;;;;;;;;5050881;28;20443;-65
2023/09/11 07:39:11;;;;;;;31.25;19.52;;;;;;;;;;5053214;28;20037;-66
2023/09/11 07:41:37;;;;;;;31.60;19.60;;;;;;;;;;5046430;28;20056;-66
2023/09/11 07:44:03;;;;;;;31.15;18.65;;;;;;;;;;5058244;28;20045;-66
2023/09/11 07:46:29;;;;;;;29.67;17.30;;;;;;;;;;5051809;28;20048;-66
2023/09/11 07:48:55;;;;;;;30.75;18.55;;;;;;;;;;5056941;28;20041;-66
2023/09/11 07:51:22;;;;;;;32.60;18.35;;;;;;;;;;5051531;28;20385;-64
2023/09/11 07:53:49;;;;;;;33.00;17.80;;;;;;;;;;5061169;28;20817;-65
2023/09/11 07:56:15;;;;;;;30.45;18.88;;;;;;;;;;5059913;28;20078;-63
2023/09/11 07:58:41;;;;;;;31.25;18.42;;;;;;;;;;5054897;28;20548;-65
2023/09/11 08:01:07;;;;;;;24.52;17.23;;;;;;;;;;5061789;28;20116;-67
2023/09/11 08:03:34;;;;;;;32.15;16.95;;;;;;;;;;5052290;28;20134;-66
2023/09/11 08:06:00;;;;;;;30.55;18.33;;;;;;;;;;5049844;28;20040;-69
2023/09/11 08:08:26;;;;;;;32.38;16.65;;;;;;;;;;5059396;28;20110;-65
2023/09/11 08:10:53;;;;;;;23.40;14.82;;;;;;;;;;5051905;28;20091;-66
2023/09/11 08:13:19;;;;;;;31.95;15.40;;;;;;;;;;5055203;28;20028;-64
2023/09/11 08:15:45;;;;;;;28.05;14.60;;;;;;;;;;5068452;28;20131;-66
2023/09/11 08:18:11;;;;;;;31.40;15.73;;;;;;;;;;5055347;28;20432;-64
2023/09/11 08:20:37;;;;;;;25.88;14.88;;;;;;;;;;5062273;28;20128;-65
2023/09/11 08:23:03;;;;;;;31.85;14.95;;;;;;;;;;5069582;28;20063;-66
2023/09/11 08:25:30;;;;;;;23.63;14.68;;;;;;;;;;5059369;28;20040;-65
2023/09/11 08:27:56;;;;;;;37.20;15.60;;;;;;;;;;5056499;28;20058;-68
2023/09/11 08:30:22;;;;;;;22.35;14.73;;;;;;;;;;5052194;28;20033;-67
2023/09/11 08:32:48;;;;;;;27.10;14.32;;;;;;;;;;5051717;28;20060;-66
2023/09/11 08:35:14;;;;;;;28.63;14.63;;;;;;;;;;5051721;28;20048;-65
2023/09/11 08:37:40;;;;;;;21.95;13.73;;;;;;;;;;5065807;28;20048;-64
2023/09/11 08:40:06;;;;;;;21.98;13.65;;;;;;;;;;5067965;28;20045;-64
2023/09/11 08:42:33;;;;;;;22.73;13.52;;;;;;;;;;5049899;28;20487;-64
2023/09/11 08:44:59;;;;;;;19.38;11.38;;;;;;;;;;5033511;28;20048;-65
2023/09/11 08:47:30;;;;;;;24.35;12.18;;;;;;;;;;5051398;28;20037;-66
2023/09/11 08:49:58;;;;;;;21.10;12.20;;;;;;;;;;5050182;28;20049;-65
2023/09/11 08:52:25;;;;;;;17.55;11.05;;;;;;;;;;5051446;28;20045;-65
2023/09/11 08:54:52;;;;;;;20.65;12.20;;;;;;;;;;5052236;28;20090;-65
2023/09/11 08:57:21;;;;;;;17.80;12.00;;;;;;;;;;5050318;28;20467;-66
2023/09/11 08:59:50;;;;;;;21.85;11.30;;;;;;;;;;5033364;28;20049;-66
2023/09/11 09:02:17;;;;;;;22.40;12.50;;;;;;;;;;5051016;28;20049;-65
2023/09/11 09:04:44;;;;;;;17.17;12.00;;;;;;;;;;5045656;28;20043;-66
2023/09/11 09:07:11;;;;;;;17.98;12.25;;;;;;;;;;5050583;28;20033;-65
2023/09/11 09:09:37;;;;;;;25.23;13.18;;;;;;;;;;5032080;28;20379;-65
2023/09/11 09:12:04;;;;;;;22.85;12.90;;;;;;;;;;5051686;28;20043;-66
2023/09/11 09:14:31;;;;;;;20.02;11.70;;;;;;;;;;5052321;28;20380;-65
2023/09/11 09:16:57;;;;;;;22.02;11.10;;;;;;;;;;5048292;28;20033;-65
2023/09/11 09:19:24;;;;;;;17.58;10.80;;;;;;;;;;5048130;28;20033;-65
2023/09/11 09:22:05;;;;;;;20.73;10.50;;;;;;;;;;5041516;28;20049;-66
2023/09/11 09:24:31;;;;;;;20.60;11.25;;;;;;;;;;5040481;28;20092;-65
2023/09/11 09:26:58;;;;;;;17.00;10.90;;;;;;;;;;5047524;28;20471;-64
2023/09/11 09:29:25;;;;;;;22.38;11.85;;;;;;;;;;5054289;28;20048;-65
2023/09/11 09:31:51;;;;;;;22.55;10.80;;;;;;;;;;5053798;28;20099;-64
2023/09/11 09:34:17;;;;;;;18.10;10.98;;;;;;;;;;5054317;28;20097;-64
2023/09/11 09:36:52;;;;;;;19.55;11.65;;;;;;;;;;5070502;28;20135;-65
2023/09/11 09:39:19;;;;;;;18.52;11.82;;;;;;;;;;5042190;28;20037;-64
2023/09/11 09:42:12;;;;;;;22.45;11.13;;;;;;;;;;5048883;28;20044;-68
2023/09/11 09:44:39;;;;;;;22.48;10.98;;;;;;;;;;5033371;28;20051;-63
2023/09/11 09:47:09;;;;;;;18.60;11.07;;;;;;;;;;5029253;28;20033;-62
2023/09/11 09:49:49;;;;;;;17.33;10.65;;;;;;;;;;5048055;28;20387;-68
2023/09/11 09:52:17;;;;;;;17.33;10.38;;;;;;;;;;5039911;28;20059;-68
2023/09/11 09:54:51;;;;;;;16.90;11.02;;;;;;;;;;5048754;28;20055;-67
2023/09/11 09:57:18;;;;;;;16.70;11.18;;;;;;;;;;5047569;28;20068;-67
2023/09/11 09:59:52;;;;;;;23.08;11.32;;;;;;;;;;5045293;28;20514;-65
2023/09/11 10:02:24;;;;;;;19.05;11.27;;;;;;;;;;5065618;28;20083;-64
2023/09/11 10:04:50;;;;;;;;;;;;;;;;;;5069571;28;20040;-65
2023/09/11 10:07:16;;;;;;;16.73;9.88;;;;;;;;;;5069412;28;20354;-69
2023/09/11 10:09:42;;;;;;;24.92;11.13;;;;;;;;;;5064081;28;20037;-68
2023/09/11 10:12:11;;;;;;;17.08;9.48;;;;;;;;;;5031565;28;20051;-65
2023/09/11 10:14:37;;;;;;;18.45;10.63;;;;;;;;;;5045495;28;20041;-64
2023/09/11 10:17:04;;;;;;;20.65;10.50;;;;;;;;;;5042437;28;20040;-67
2023/09/11 10:19:30;;;;;;;17.15;11.25;;;;;;;;;;5049597;28;20037;-66
2023/09/11 10:21:56;;;;;;;13.80;10.10;;;;;;;;;;5030404;28;20052;-64
2023/09/11 10:24:22;;;;;;;16.67;10.25;;;;;;;;;;5045245;28;20488;-65
2023/09/11 10:26:59;;;;;;;16.45;10.02;;;;;;;;;;5046836;28;20043;-67
2023/09/11 10:29:34;;;;;;;18.88;11.35;;;;;;;;;;5060264;28;20083;-66
2023/09/11 10:32:06;;;;;;;19.08;11.05;;;;;;;;;;5051800;28;20067;-66
2023/09/11 10:34:32;;;;;;;;;;;;;;;;;;5051928;28;20041;-64
2023/09/11 10:36:59;;;;;;;17.35;12.07;;;;;;;;;;5047807;28;20032;-64
2023/09/11 10:39:25;;;;;;;17.70;11.50;;;;;;;;;;5036708;28;20423;-65
2023/09/11 10:41:52;;;;;;;19.35;12.32;;;;;;;;;;5054291;28;20080;-64
2023/09/11 10:44:18;;;;;;;19.30;11.57;;;;;;;;;;5033785;28;20049;-65
2023/09/11 10:46:51;;;;;;;19.40;11.27;;;;;;;;;;5048753;28;20416;-65
2023/09/11 10:49:23;;;;;;;21.75;13.35;;;;;;;;;;5041062;28;20561;-65
2023/09/11 10:51:49;;;;;;;20.15;12.65;;;;;;;;;;5068231;28;20110;-65
2023/09/11 10:54:16;;;;;;;19.38;12.27;;;;;;;;;;5043168;28;20495;-64
2023/09/11 10:56:43;;;;;;;20.23;13.77;;;;;;;;;;5035710;28;20374;-65
2023/09/11 10:59:10;;;;;;;20.83;13.82;;;;;;;;;;5039157;28;20033;-65
2023/09/11 11:01:36;;;;;;;31.58;14.63;;;;;;;;;;5046655;28;20057;-69
2023/09/11 11:04:05;;;;;;;22.83;13.00;;;;;;;;;;5042119;28;20111;-65
2023/09/11 11:06:32;;;;;;;21.98;12.10;;;;;;;;;;5051709;28;20040;-67
2023/09/11 11:08:58;;;;;;;20.20;13.15;;;;;;;;;;5049362;28;20143;-65
2023/09/11 11:11:30;;;;;;;17.42;12.48;;;;;;;;;;5063298;28;20777;-65
2023/09/11 11:14:11;;;;;;;21.33;11.38;;;;;;;;;;5052405;28;20051;-64
2023/09/11 11:16:38;;;;;;;22.42;12.40;;;;;;;;;;5042271;28;20144;-64
2023/09/11 11:19:04;;;;;;;16.55;12.15;;;;;;;;;;5066561;28;20041;-64
2023/09/11 11:21:40;;;;;;;16.67;12.30;;;;;;;;;;5070626;28;20070;-64
2023/09/11 11:24:09;;;;;;;19.63;12.05;;;;;;;;;;5036754;28;20048;-65
2023/09/11 11:26:42;;;;;;;20.67;11.82;;;;;;;;;;5065226;28;20090;-65
2023/09/11 11:29:08;;;;;;;16.02;12.30;;;;;;;;;;5053149;28;20090;-64
2023/09/11 11:31:35;;;;;;;23.83;14.07;;;;;;;;;;5055442;28;20041;-63
2023/09/11 11:34:01;;;;;;;19.48;11.80;;;;;;;;;;5056609;28;20153;-65
2023/09/11 11:36:29;;;;;;;16.60;10.60;;;;;;;;;;5044819;28;20055;-64
2023/09/11 11:38:56;;;;;;;19.30;11.55;;;;;;;;;;5059260;28;20494;-64
2023/09/11 11:41:23;;;;;;;18.98;10.57;;;;;;;;;;5046905;28;20044;-64
2023/09/11 11:43:49;;;;;;;15.68;10.45;;;;;;;;;;5051548;28;20425;-64
2023/09/11 11:46:16;;;;;;;16.10;9.63;;;;;;;;;;5057102;28;20032;-64
2023/09/11 11:48:42;;;;;;;18.85;9.88;;;;;;;;;;5072164;28;20594;-64
2023/09/11 11:51:09;;;;;;;16.17;9.15;;;;;;;;;;5052996;28;20050;-63
2023/09/11 11:53:35;;;;;;;13.65;8.07;;;;;;;;;;5045011;28;20247;-64
2023/09/11 11:56:05;;;;;;;13.65;8.95;;;;;;;;;;5058019;28;20107;-65
2023/09/11 11:58:31;;;;;;;14.88;10.15;;;;;;;;;;5067301;28;20040;-64
2023/09/11 12:01:01;;;;;;;18.20;9.95;;;;;;;;;;5072020;28;20048;-64
2023/09/11 12:03:28;;;;;;;14.90;7.75;;;;;;;;;;5071886;28;20044;-65
2023/09/11 12:05:55;;;;;;;9.05;6.75;;;;;;;;;;5070010;28;20035;-65
2023/09/11 12:08:21;;;;;;;10.48;6.88;;;;;;;;;;5046691;28;20097;-66
2023/09/11 12:10:48;;;;;;;10.95;6.22;;;;;;;;;;5051087;28;20603;-66
2023/09/11 12:13:18;;;;;;;9.65;7.45;;;;;;;;;;5051866;28;20457;-69
2023/09/11 12:15:52;;;;;;;10.18;6.80;;;;;;;;;;5071034;28;20471;-66
2023/09/11 12:18:18;;;;;;;15.05;6.72;;;;;;;;;;5067086;28;20041;-65
2023/09/11 12:20:54;;;;;;;11.45;6.32;;;;;;;;;;5037542;28;20136;-65
2023/09/11 12:23:21;;;;;;;11.95;6.00;;;;;;;;;;5030548;28;20098;-68
2023/09/11 12:25:47;;;;;;;8.35;5.63;;;;;;;;;;5057995;28;20442;-65
2023/09/11 12:28:13;;;;;;;15.07;6.80;;;;;;;;;;5043838;28;20103;-67
2023/09/11 12:30:41;;;;;;;9.45;5.97;;;;;;;;;;5066514;28;20047;-65
2023/09/11 12:33:12;;;;;;;11.20;6.07;;;;;;;;;;5049494;28;20068;-65
2023/09/11 12:35:39;;;;;;;12.68;5.82;;;;;;;;;;5068494;28;20041;-65
2023/09/11 12:38:09;;;;;;;11.73;6.15;;;;;;;;;;5060661;28;20127;-68
2023/09/11 12:40:35;;;;;;;8.52;5.90;;;;;;;;;;5037985;28;20474;-66
2023/09/11 12:43:02;;;;;;;11.10;5.68;;;;;;;;;;5065317;28;20040;-65
2023/09/11 12:45:28;;;;;;;13.00;6.90;;;;;;;;;;5052881;28;20101;-66
2023/09/11 12:47:54;;;;;;;9.88;6.10;;;;;;;;;;5064306;28;20450;-66
2023/09/11 12:50:21;;;;;;;14.32;6.00;;;;;;;;;;5062109;28;20045;-66
2023/09/11 12:52:47;;;;;;;11.35;5.93;;;;;;;;;;5056317;28;20048;-64
2023/09/11 12:55:13;;;;;;;13.45;5.60;;;;;;;;;;5067748;28;20052;-65
2023/09/11 12:57:42;;;;;;;8.20;6.07;;;;;;;;;;5057277;28;20052;-65
2023/09/11 13:00:09;;;;;;;12.88;6.75;;;;;;;;;;5071402;28;20033;-65
2023/09/11 13:02:35;;;;;;;10.60;7.07;;;;;;;;;;5062429;28;20044;-66
2023/09/11 13:05:01;;;;;;;14.98;7.43;;;;;;;;;;5037940;28;20037;-65
2023/09/11 13:07:27;;;;;;;12.70;6.57;;;;;;;;;;5049602;28;20037;-65
2023/09/11 13:09:53;;;;;;;13.57;6.13;;;;;;;;;;5047845;28;20375;-65
2023/09/11 13:12:19;;;;;;;13.82;6.13;;;;;;;;;;5051076;28;20123;-64
2023/09/11 13:14:48;;;;;;;14.23;6.97;;;;;;;;;;5055434;28;20048;-65
2023/09/11 13:17:14;;;;;;;8.43;5.50;;;;;;;;;;5034552;28;20114;-66
2023/09/11 13:19:40;;;;;;;12.00;6.20;;;;;;;;;;5059560;28;20079;-66
2023/09/11 13:22:06;;;;;;;10.88;5.60;;;;;;;;;;5057720;28;20037;-67
2023/09/11 13:24:32;;;;;;;13.15;7.07;;;;;;;;;;5070769;28;20036;-67
2023/09/11 13:26:59;;;;;;;11.82;6.72;;;;;;;;;;5048954;28;20051;-69
2023/09/11 13:29:25;;;;;;;11.93;5.35;;;;;;;;;;5063552;28;20060;-63
2023/09/11 13:31:51;;;;;;;10.43;5.18;;;;;;;;;;5070131;28;20395;-67
2023/09/11 13:34:17;;;;;;;11.55;6.03;;;;;;;;;;5069968;28;20048;-66
2023/09/11 13:36:44;;;;;;;12.05;5.95;;;;;;;;;;5044117;28;20049;-67
2023/09/11 13:39:11;;;;;;;12.10;5.60;;;;;;;;;;5045178;28;20475;-65
2023/09/11 13:41:37;;;;;;;9.25;4.82;;;;;;;;;;5043272;28;20044;-65
2023/09/11 13:44:03;;;;;;;11.18;5.93;;;;;;;;;;5066073;28;20121;-66
2023/09/11 13:46:29;;;;;;;8.55;4.80;;;;;;;;;;5070184;28;20041;-64
2023/09/11 13:48:55;;;;;;;9.90;5.03;;;;;;;;;;5060529;28;20041;-64
2023/09/11 13:51:21;;;;;;;8.77;4.80;;;;;;;;;;5070601;28;20064;-66
2023/09/11 13:53:47;;;;;;;10.25;4.72;;;;;;;;;;5039074;28;20049;-64
2023/09/11 13:56:14;;;;;;;11.32;4.65;;;;;;;;;;5044067;28;20078;-62
2023/09/11 13:58:40;;;;;;;10.43;5.05;;;;;;;;;;5051059;28;20044;-62
2023/09/11 14:01:06;;;;;;;14.45;4.93;;;;;;;;;;5070558;28;20036;-62
2023/09/11 14:03:32;;;;;;;8.38;4.53;;;;;;;;;;5070968;28;20044;-63
2023/09/11 14:05:58;;;;;;;9.07;4.50;;;;;;;;;;5065636;28;20045;-61
2023/09/11 14:08:24;;;;;;;10.68;4.70;;;;;;;;;;5054917;28;20037;-64
2023/09/11 14:10:50;;;;;;;13.40;4.15;;;;;;;;;;5070344;28;20033;-64
2023/09/11 14:13:19;;;;;;;8.73;4.80;;;;;;;;;;5070913;28;20505;-64
2023/09/11 14:15:46;;;;;;;9.05;4.53;;;;;;;;;;5069115;28;20102;-64
2023/09/11 14:18:12;;;;;;;8.23;5.28;;;;;;;;;;5065053;28;20051;-64
2023/09/11 14:20:38;;;;;;;6.78;4.40;;;;;;;;;;5070481;28;20044;-64